Touchet, Washington
Current Conditions -  °F | °C
As of 12:53 PM on Wednesday 26 Nov 2014 (Local Time) from KALW Reporting Station
Clear Clear  
Wind Chill: 61°   Ceiling: Unl
Heat Index: 61°   Visibility: 10mi
Dew Point: 45°   Wind: 7mph
Humidity: 56%   Direction: 210°SSW
Pressure: 30.13"   Gusts: NA
Location:  46.04°N, 118.67°W
Report Text: KALW 262053Z 21006KT 10SM CLR 16/07 A3013 RMK AO2 SLP205 T01610072 56023
Loading
Personal Weather Stations






























Interactive Weather Map New forecast layout! Learn more

10-Day Weather Forecast

Advertisements
Track Severe Weather on mobile